Time;durP1;ratioP1;P1;durP2;ratioP2;P2;SDS_P1;SDS_P2;PMS_P1;PMS_P2;Temp;Humidity;BMP_temperature;BMP_pressure;BME280_temperature;BME280_humidity;BME280_pressure;Samples;Min_cycle;Max_cycle;Signal;HPM_P1;HPM_P2
2023/03/30 05:38:51;;;;;;;10.83;6.00;;;;;;;8.86;100.00;99627.19;4970492;28;1520203;-95
2023/03/30 05:41:17;;;;;;;11.75;5.97;;;;;;;8.86;100.00;99624.53;5040002;28;20105;-94
2023/03/30 05:43:43;;;;;;;12.82;6.22;;;;;;;8.91;100.00;99636.84;5029451;28;20073;-94
2023/03/30 05:46:09;;;;;;;15.73;6.18;;;;;;;8.99;100.00;99643.00;5023942;28;20081;-95
2023/03/30 05:48:34;;;;;;;9.68;6.18;;;;;;;9.06;100.00;99641.19;5023711;28;20050;-94
2023/03/30 05:51:01;;;;;;;12.13;6.53;;;;;;;8.91;100.00;99617.41;5037071;28;20060;-93
2023/03/30 05:53:32;;;;;;;9.95;6.15;;;;;;;9.11;100.00;99628.78;5037784;28;20049;-93
2023/03/30 05:56:06;;;;;;;9.98;6.00;;;;;;;9.10;100.00;99629.66;5035868;28;20053;-92
2023/03/30 05:58:35;;;;;;;10.40;6.82;;;;;;;9.22;100.00;99636.66;5031334;28;20041;-94
2023/03/30 06:01:03;;;;;;;15.00;6.10;;;;;;;9.12;100.00;99597.81;5034443;28;20100;-94
2023/03/30 06:03:30;;;;;;;12.85;6.63;;;;;;;9.16;100.00;99608.38;5028698;28;20104;-94
2023/03/30 06:05:59;;;;;;;11.85;6.28;;;;;;;9.36;100.00;99642.72;5028688;28;20038;-94
2023/03/30 06:08:26;;;;;;;13.13;6.07;;;;;;;9.16;100.00;99615.47;5030921;28;20501;-94
2023/03/30 06:10:52;;;;;;;10.48;5.90;;;;;;;9.13;100.00;99611.06;5035967;28;20057;-94
2023/03/30 06:13:20;;;;;;;11.55;6.47;;;;;;;9.31;100.00;99649.84;5038050;28;20509;-94
2023/03/30 06:15:46;;;;;;;11.60;5.97;;;;;;;9.27;100.00;99647.22;5028122;28;20034;-93
2023/03/30 06:18:12;;;;;;;15.52;6.80;;;;;;;9.37;100.00;99643.63;5026951;28;20109;-94
2023/03/30 06:20:38;;;;;;;19.00;7.13;;;;;;;9.27;100.00;99615.38;5036879;28;20076;-95
2023/03/30 06:23:04;;;;;;;15.63;8.15;;;;;;;9.36;100.00;99625.91;5036213;28;20042;-94
2023/03/30 06:25:30;;;;;;;15.00;7.20;;;;;;;9.49;100.00;99630.22;5029559;28;20049;-93
2023/03/30 06:27:56;;;;;;;17.80;7.28;;;;;;;9.65;100.00;99642.47;5023754;28;20061;-94
2023/03/30 06:30:26;;;;;;;14.05;7.15;;;;;;;9.75;100.00;99629.09;5038095;28;20045;-96
2023/03/30 06:32:52;;;;;;;12.88;6.60;;;;;;;9.89;100.00;99629.84;5040178;28;20022;-95
2023/03/30 06:35:18;;;;;;;14.02;6.70;;;;;;;10.00;100.00;99627.97;5031793;28;20157;-95
2023/03/30 06:37:44;;;;;;;16.10;6.60;;;;;;;10.07;100.00;99632.28;5030651;28;20486;-94
2023/03/30 06:40:12;;;;;;;15.00;6.82;;;;;;;10.27;100.00;99640.03;5042490;28;20057;-94
2023/03/30 06:42:38;;;;;;;16.20;7.22;;;;;;;10.32;100.00;99623.19;5033628;28;20046;-94
2023/03/30 06:45:05;;;;;;;24.80;7.43;;;;;;;10.43;100.00;99627.50;5034918;28;20058;-95
2023/03/30 06:47:33;;;;;;;16.65;7.72;;;;;;;10.70;100.00;99651.94;5036669;28;20049;-93
2023/03/30 06:49:59;;;;;;;13.20;7.47;;;;;;;10.60;99.53;99632.56;5022759;28;20113;-94
2023/03/30 06:52:25;;;;;;;14.98;7.32;;;;;;;10.56;99.68;99638.84;5038862;28;20038;-93
2023/03/30 06:54:51;;;;;;;17.70;9.05;;;;;;;10.46;100.00;99616.78;5031419;28;20064;-93
2023/03/30 06:57:17;;;;;;;21.50;9.77;;;;;;;10.73;99.46;99645.69;5039539;28;20045;-92
2023/03/30 06:59:43;;;;;;;22.80;11.02;;;;;;;10.78;99.29;99655.41;5037388;28;20053;-94
2023/03/30 07:02:12;;;;;;;25.13;12.75;;;;;;;10.52;99.46;99628.25;5043811;28;20045;-93
2023/03/30 07:04:39;;;;;;;;;;;;;;;10.88;100.00;99661.44;5037958;28;20451;-92
2023/03/30 07:07:05;;;;;;;32.53;17.73;;;;;;;11.09;97.85;99644.31;5034844;28;20019;-93
2023/03/30 07:09:31;;;;;;;29.80;16.52;;;;;;;11.16;96.38;99629.13;5040654;28;20525;-93
2023/03/30 07:11:57;;;;;;;27.15;13.23;;;;;;;11.26;96.52;99628.94;5039480;28;20046;-93
2023/03/30 07:14:23;;;;;;;23.25;11.60;;;;;;;11.67;93.74;99659.34;5039552;28;20823;-91
2023/03/30 07:16:50;;;;;;;19.23;9.40;;;;;;;11.71;94.65;99650.38;5036355;28;20405;-93
2023/03/30 07:19:15;;;;;;;26.52;9.45;;;;;;;11.74;92.51;99624.59;5026744;28;20037;-94
2023/03/30 07:21:44;;;;;;;12.93;7.45;;;;;;;11.59;92.22;99626.63;5033430;28;20044;-94
2023/03/30 07:24:10;;;;;;;14.67;8.40;;;;;;;11.40;93.89;99623.38;5039508;28;20041;-93
2023/03/30 07:26:36;;;;;;;16.75;8.07;;;;;;;11.52;93.85;99625.84;5026493;28;20292;-94
2023/03/30 07:29:03;;;;;;;12.95;8.15;;;;;;;11.38;94.56;99619.00;5031896;28;20045;-94
2023/03/30 07:31:30;;;;;;;11.95;6.53;;;;;;;11.63;94.35;99623.00;5041904;28;20489;-93
2023/03/30 07:33:56;;;;;;;13.13;6.55;;;;;;;11.66;93.49;99622.94;5049096;28;20049;-94
2023/03/30 07:36:23;;;;;;;11.50;6.13;;;;;;;11.69;93.76;99622.88;5049252;28;20056;-95
2023/03/30 07:38:50;;;;;;;12.55;5.90;;;;;;;11.83;94.19;99619.97;5049424;28;20050;-94
2023/03/30 07:41:18;;;;;;;9.82;5.30;;;;;;;12.01;92.46;99624.09;5030219;28;20042;-94
2023/03/30 07:43:44;;;;;;;8.55;4.38;;;;;;;12.03;89.39;99632.94;5027519;28;20072;-94
2023/03/30 07:46:11;;;;;;;7.20;4.70;;;;;;;12.07;90.04;99620.44;5027813;28;20506;-94
2023/03/30 07:48:37;;;;;;;9.32;4.22;;;;;;;12.42;88.25;99635.72;5026127;28;20121;-93
2023/03/30 07:51:05;;;;;;;9.27;4.22;;;;;;;12.48;88.22;99632.94;5028319;28;20046;-94
2023/03/30 07:53:32;;;;;;;10.00;4.68;;;;;;;12.58;87.63;99641.63;5026851;28;20049;-93
2023/03/30 07:55:59;;;;;;;9.77;4.25;;;;;;;12.41;86.21;99635.78;5025565;28;20049;-92
2023/03/30 07:58:26;;;;;;;9.85;4.20;;;;;;;12.47;87.05;99627.63;5027125;28;20050;-94
2023/03/30 08:00:52;;;;;;;9.32;4.57;;;;;;;12.42;87.29;99624.19;5029264;28;20045;-93
2023/03/30 08:03:18;;;;;;;12.10;4.90;;;;;;;12.91;85.35;99634.66;5032690;28;20110;-94
2023/03/30 08:05:52;;;;;;;8.80;4.63;;;;;;;12.53;85.20;99617.72;5031303;28;20048;-94
2023/03/30 08:08:18;;;;;;;8.13;4.03;;;;;;;12.80;85.81;99626.03;5046478;28;20045;-96
2023/03/30 08:10:45;;;;;;;12.00;4.57;;;;;;;13.09;83.54;99624.47;5046301;28;20379;-94
2023/03/30 08:13:12;;;;;;;9.25;4.53;;;;;;;12.92;82.67;99657.78;5037367;28;20045;-93
2023/03/30 08:15:38;;;;;;;8.25;4.80;;;;;;;12.84;84.11;99625.06;5026311;28;20084;-94
2023/03/30 08:18:06;;;;;;;11.13;5.00;;;;;;;13.03;83.03;99637.97;5026916;28;20431;-93
2023/03/30 08:20:35;;;;;;;9.70;4.32;;;;;;;12.92;82.97;99625.75;5045093;28;20486;-92
2023/03/30 08:23:01;;;;;;;9.20;4.90;;;;;;;12.85;84.06;99665.97;5046681;28;20052;-94
2023/03/30 08:25:27;;;;;;;8.75;5.40;;;;;;;12.83;82.74;99641.97;5034426;28;20517;-93
2023/03/30 08:27:53;;;;;;;12.07;5.00;;;;;;;12.49;84.30;99626.69;5024827;28;20054;-93
2023/03/30 08:30:20;;;;;;;19.55;10.18;;;;;;;12.46;85.96;99632.09;5033373;28;20048;-95
2023/03/30 08:32:47;;;;;;;13.75;7.70;;;;;;;12.49;84.42;99625.78;5032094;28;20037;-93
2023/03/30 08:35:13;;;;;;;11.82;4.88;;;;;;;12.13;86.62;99623.88;5033028;28;20049;-94
2023/03/30 08:37:40;;;;;;;11.00;4.10;;;;;;;12.38;86.35;99650.03;5035573;28;20053;-94
2023/03/30 08:40:10;;;;;;;11.07;4.68;;;;;;;12.58;85.52;99644.31;5038849;28;20042;-95
2023/03/30 08:42:55;;;;;;;7.80;3.80;;;;;;;12.67;84.02;99651.22;5038799;28;20072;-93
2023/03/30 08:45:23;;;;;;;11.73;4.47;;;;;;;12.85;83.41;99644.59;5026282;28;20049;-93
2023/03/30 08:47:51;;;;;;;10.50;3.88;;;;;;;12.86;81.19;99630.34;5034872;28;20054;-93
2023/03/30 08:50:21;;;;;;;7.57;3.08;;;;;;;12.98;81.10;99637.19;5035290;28;20033;-94
2023/03/30 08:52:50;;;;;;;8.55;3.35;;;;;;;12.92;80.57;99651.56;5036836;28;20068;-95
2023/03/30 08:55:23;;;;;;;10.90;3.00;;;;;;;13.08;79.55;99636.09;5038994;28;20038;-92
2023/03/30 08:57:56;;;;;;;11.00;3.88;;;;;;;13.29;78.24;99665.00;5036292;28;20041;-93
2023/03/30 09:00:32;;;;;;;8.50;3.38;;;;;;;13.29;79.30;99638.28;5040637;28;20663;-93
2023/03/30 09:03:09;;;;;;;10.27;2.90;;;;;;;13.48;77.33;99632.47;5031824;28;20042;-92
2023/03/30 09:05:41;;;;;;;6.07;2.80;;;;;;;13.68;75.71;99639.97;5042380;28;20072;-95
2023/03/30 09:08:14;;;;;;;9.88;3.35;;;;;;;13.46;75.56;99629.81;5046990;28;20049;-94
2023/03/30 09:10:44;;;;;;;6.43;3.05;;;;;;;13.43;76.16;99629.91;5037004;28;20042;-94
2023/03/30 09:13:15;;;;;;;11.32;4.20;;;;;;;13.62;76.45;99616.97;5045148;28;20422;-95
2023/03/30 09:15:48;;;;;;;6.82;2.90;;;;;;;14.26;75.02;99618.81;5029183;28;20068;-95
2023/03/30 09:18:18;;;;;;;7.45;3.20;;;;;;;14.51;70.48;99611.81;5031579;28;20053;-95
2023/03/30 09:20:45;;;;;;;7.30;3.15;;;;;;;14.36;71.64;99620.31;5042901;28;20041;-94
2023/03/30 09:23:14;;;;;;;8.50;2.95;;;;;;;14.72;72.09;99617.47;5030618;28;21151;-94
2023/03/30 09:25:43;;;;;;;;;;;;;;;15.02;70.89;99641.56;5044698;28;20049;-94
2023/03/30 09:28:17;;;;;;;11.13;2.95;;;;;;;14.75;70.64;99607.56;5039936;28;19956;-94
2023/03/30 09:30:47;;;;;;;5.85;2.80;;;;;;;15.05;68.86;99630.75;5044414;28;20046;-94
2023/03/30 09:33:26;;;;;;;5.95;2.72;;;;;;;15.19;67.80;99610.63;5025359;28;20065;-93
2023/03/30 09:36:07;;;;;;;7.07;3.00;;;;;;;14.60;69.48;99607.16;5043139;28;20077;-93
2023/03/30 09:38:36;;;;;;;8.38;3.20;;;;;;;15.03;69.29;99616.50;5023507;28;20054;-94
2023/03/30 09:41:06;;;;;;;;;;;;;;;15.76;67.14;99613.22;5024548;28;20046;-94
2023/03/30 09:43:34;;;;;;;6.78;3.03;;;;;;;15.88;64.83;99590.50;5024396;28;19928;-94
2023/03/30 09:46:05;;;;;;;7.47;3.60;;;;;;;16.06;65.57;99597.00;5023789;28;20073;-95
2023/03/30 09:48:38;;;;;;;6.05;3.20;;;;;;;15.50;66.70;99587.28;5029500;28;20049;-94
2023/03/30 09:51:13;;;;;;;8.55;3.70;;;;;;;15.76;65.91;99589.97;5041357;28;20048;-93
2023/03/30 09:53:41;;;;;;;8.57;3.17;;;;;;;15.52;66.13;99558.63;5033227;28;20060;-92
2023/03/30 09:56:10;;;;;;;5.05;2.70;;;;;;;15.68;64.83;99569.69;5028671;28;20604;-93
2023/03/30 09:58:36;;;;;;;7.95;3.45;;;;;;;16.13;66.14;99560.94;5021111;28;20148;-95
2023/03/30 10:01:11;;;;;;;8.65;2.80;;;;;;;16.46;62.57;99557.91;5021713;28;20076;-94
2023/03/30 10:03:38;;;;;;;5.07;2.97;;;;;;;16.69;59.85;99565.94;5021419;28;20060;-96
2023/03/30 10:06:06;;;;;;;5.72;2.90;;;;;;;16.68;60.90;99550.78;5020676;28;20061;-95
2023/03/30 10:08:42;;;;;;;5.97;2.67;;;;;;;16.83;60.70;99543.97;5027007;28;20049;-94
2023/03/30 10:11:09;;;;;;;10.30;2.90;;;;;;;16.31;61.70;99567.41;5024825;28;20513;-94
2023/03/30 10:13:37;;;;;;;4.70;2.35;;;;;;;16.84;60.01;99545.72;5028963;28;20049;-94
2023/03/30 10:16:08;;;;;;;7.78;3.00;;;;;;;17.02;60.01;99528.84;5041662;28;20049;-94
2023/03/30 10:18:40;;;;;;;5.75;2.67;;;;;;;17.31;57.63;99529.44;5030912;28;20508;-94
2023/03/30 10:21:15;;;;;;;4.72;2.80;;;;;;;17.26;58.25;99555.63;5032705;28;20042;-95
2023/03/30 10:23:44;;;;;;;4.10;2.60;;;;;;;17.13;58.15;99538.25;5031989;28;20050;-93
2023/03/30 10:26:14;;;;;;;6.75;2.78;;;;;;;16.84;59.11;99535.81;5042277;28;20049;-94
2023/03/30 10:28:51;;;;;;;4.57;2.50;;;;;;;16.06;62.02;99537.97;5042032;28;20544;-95
2023/03/30 10:31:19;;;;;;;7.72;3.03;;;;;;;15.81;63.05;99534.38;5022912;28;20038;-95
2023/03/30 10:33:47;;;;;;;5.68;2.70;;;;;;;15.98;64.41;99557.91;5021696;28;20049;-95
2023/03/30 10:36:16;;;;;;;7.53;3.20;;;;;;;16.00;63.91;99547.09;5022724;28;20041;-95
2023/03/30 10:38:42;;;;;;;6.25;3.08;;;;;;;16.11;63.67;99544.94;5023148;28;20061;-95
2023/03/30 10:41:11;;;;;;;5.20;2.85;;;;;;;16.41;62.98;99547.34;5024239;28;20038;-94
2023/03/30 10:43:39;;;;;;;7.70;3.63;;;;;;;16.28;63.22;99519.25;5024818;28;20109;-96
2023/03/30 10:46:12;;;;;;;6.97;2.90;;;;;;;16.18;62.18;99514.25;5046718;28;20045;-94
2023/03/30 10:48:52;;;;;;;6.47;2.80;;;;;;;15.76;63.66;99520.25;5047872;28;20049;-93
2023/03/30 10:51:33;;;;;;;6.18;2.95;;;;;;;16.45;61.87;99532.03;5046162;28;20048;-94
2023/03/30 10:54:06;;;;;;;6.05;2.70;;;;;;;16.53;61.70;99516.50;5047940;28;20049;-95
2023/03/30 10:56:37;;;;;;;9.35;3.08;;;;;;;16.37;62.00;99503.69;5046342;28;20673;-96
2023/03/30 10:59:29;;;;;;;7.93;2.80;;;;;;;16.25;61.39;99482.66;5046602;28;20116;-94
2023/03/30 11:02:17;;;;;;;6.70;3.00;;;;;;;16.64;59.62;99485.56;5002832;28;20046;-96
2023/03/30 11:04:46;;;;;;;8.27;2.80;;;;;;;16.46;59.49;99480.97;5042823;28;20042;-96
2023/03/30 11:07:20;;;;;;;5.45;3.00;;;;;;;16.45;59.88;99481.00;5044402;28;20041;-95
2023/03/30 11:09:53;;;;;;;5.40;2.70;;;;;;;16.38;60.55;99467.81;5045753;28;20045;-95
2023/03/30 11:12:23;;;;;;;6.80;2.90;;;;;;;16.41;60.72;99467.69;5044713;28;20051;-95
2023/03/30 11:14:54;;;;;;;6.45;3.25;;;;;;;16.38;61.00;99470.50;5044961;28;20064;-95
2023/03/30 11:17:25;;;;;;;5.97;2.70;;;;;;;16.44;60.12;99480.16;5044815;28;20049;-93
2023/03/30 11:19:55;;;;;;;8.57;3.30;;;;;;;16.23;61.13;99471.97;5036926;28;20050;-94
2023/03/30 11:22:30;;;;;;;8.35;3.53;;;;;;;16.16;62.74;99504.50;5042430;28;20577;-96
2023/03/30 11:24:58;;;;;;;12.15;3.75;;;;;;;16.04;63.42;99459.34;5047688;28;20045;-96
2023/03/30 11:27:30;;;;;;;6.22;2.88;;;;;;;16.08;62.43;99461.84;5048225;28;20072;-95
2023/03/30 11:30:02;;;;;;;6.88;3.78;;;;;;;15.87;63.06;99459.97;5048941;28;20045;-94
2023/03/30 11:32:37;;;;;;;5.82;3.13;;;;;;;16.05;62.46;99453.03;5050852;28;20053;-96
2023/03/30 11:35:11;;;;;;;6.07;3.00;;;;;;;16.14;62.12;99474.16;5048630;28;20049;-94
2023/03/30 11:38:25;;;;;;;4.63;2.53;;;;;;;16.19;61.76;99434.59;5044140;28;20080;-96
2023/03/30 11:40:59;;;;;;;8.65;2.72;;;;;;;16.13;62.70;99464.34;5047123;28;20057;-92
2023/03/30 11:43:29;;;;;;;5.90;2.83;;;;;;;16.14;61.64;99450.88;5044465;28;20049;-95
2023/03/30 11:46:01;;;;;;;5.25;3.22;;;;;;;16.07;62.05;99441.34;5045916;28;20053;-96
2023/03/30 11:48:47;;;;;;;6.90;3.28;;;;;;;16.41;61.15;99445.34;5049550;28;20051;-96
2023/03/30 11:51:34;;;;;;;6.43;2.78;;;;;;;16.13;60.75;99438.38;5048620;28;20033;-96
2023/03/30 11:54:18;;;;;;;5.47;2.80;;;;;;;16.50;60.38;99436.91;5043866;28;20049;-93
2023/03/30 11:56:52;;;;;;;7.78;3.00;;;;;;;16.22;60.45;99430.00;5046123;28;20152;-95
2023/03/30 11:59:30;;;;;;;6.95;3.13;;;;;;;16.46;60.06;99437.09;5044293;28;20087;-96
2023/03/30 12:02:13;;;;;;;7.53;3.30;;;;;;;16.70;60.17;99424.47;5045845;28;20136;-92
2023/03/30 12:04:46;;;;;;;8.60;3.50;;;;;;;16.96;60.09;99443.13;5046015;28;20045;-96
2023/03/30 12:07:30;;;;;;;7.88;3.05;;;;;;;16.97;57.83;99412.63;5046185;28;20049;-95
2023/03/30 12:10:02;;;;;;;10.18;3.47;;;;;;;16.60;59.61;99408.75;5048787;28;20065;-96
2023/03/30 12:12:35;;;;;;;8.73;3.40;;;;;;;16.78;59.38;99406.25;5049513;28;20129;-94
2023/03/30 12:15:25;;;;;;;8.13;3.70;;;;;;;16.95;59.90;99414.50;5045132;28;20117;-94
2023/03/30 12:17:54;;;;;;;9.90;3.50;;;;;;;17.03;59.12;99417.72;5046063;28;20042;-96
2023/03/30 12:20:32;;;;;;;8.25;3.90;;;;;;;16.96;59.67;99427.00;5046530;28;20045;-96
2023/03/30 12:23:07;;;;;;;7.53;3.85;;;;;;;16.70;59.55;99427.16;5047088;28;20045;-95
2023/03/30 12:26:05;;;;;;;6.72;3.80;;;;;;;16.46;60.26;99407.59;5046378;28;20116;-95
2023/03/30 12:28:48;;;;;;;7.47;4.07;;;;;;;16.78;61.01;99396.38;5050339;28;20065;-96
2023/03/30 12:35:39;;;;;;;7.68;4.07;;;;;;;15.98;60.94;99382.66;5052393;28;20033;-96
2023/03/30 12:38:40;;;;;;;8.98;4.20;;;;;;;16.09;60.60;99369.72;5050737;28;20065;-95
2023/03/30 12:41:13;;;;;;;7.95;4.45;;;;;;;16.20;62.02;99374.66;5047089;28;20064;-95
2023/03/30 12:43:48;;;;;;;8.05;4.50;;;;;;;16.35;61.28;99389.22;5047593;28;20045;-95
2023/03/30 12:46:24;;;;;;;10.73;4.68;;;;;;;16.55;59.92;99381.25;5044720;28;20140;-96
2023/03/30 12:49:00;;;;;;;11.15;4.75;;;;;;;16.70;59.67;99377.03;5047132;28;20053;-95
2023/03/30 12:51:46;;;;;;;8.25;4.50;;;;;;;16.62;59.00;99357.69;5045502;28;20076;-95
2023/03/30 12:54:41;;;;;;;8.07;4.38;;;;;;;16.91;57.94;99356.47;5044892;28;20049;-95
2023/03/30 12:57:21;;;;;;;10.75;4.80;;;;;;;17.28;57.21;99357.50;5045960;28;20030;-96
2023/03/30 13:00:22;;;;;;;8.40;4.43;;;;;;;17.18;58.70;99337.38;5048112;28;20029;-96
2023/03/30 13:03:04;;;;;;;7.43;4.35;;;;;;;17.32;58.01;99337.63;5050162;28;20540;-96
2023/03/30 13:05:33;;;;;;;8.68;4.30;;;;;;;17.36;58.09;99343.75;5046933;28;20061;-96
2023/03/30 13:08:04;;;;;;;6.70;4.03;;;;;;;17.41;57.17;99334.53;5050444;28;20038;-96
2023/03/30 13:10:41;;;;;;;7.47;4.10;;;;;;;17.42;57.36;99351.53;5051837;28;20140;-96
2023/03/30 13:13:20;;;;;;;11.00;4.30;;;;;;;17.07;57.84;99331.59;5046121;28;20037;-94
2023/03/30 13:15:47;;;;;;;;;;;;;;;17.12;59.21;99356.47;5048665;28;20077;-95
2023/03/30 13:18:30;;;;;;;12.38;3.83;;;;;;;17.16;58.90;99321.31;5046336;28;20319;-94
2023/03/30 13:21:20;;;;;;;7.57;4.28;;;;;;;17.50;58.62;99313.50;5049077;28;20084;-96
2023/03/30 13:24:00;;;;;;;10.38;4.20;;;;;;;17.34;58.23;99329.50;5048108;28;20113;-95
2023/03/30 13:26:39;;;;;;;8.88;4.15;;;;;;;17.54;57.38;99298.97;5047873;28;20144;-96
2023/03/30 13:29:10;;;;;;;6.75;3.95;;;;;;;17.59;58.14;99303.22;5047681;28;20041;-95
2023/03/30 13:32:05;;;;;;;6.35;3.92;;;;;;;18.11;56.46;99301.66;5047841;28;20050;-96
2023/03/30 13:34:48;;;;;;;9.23;3.80;;;;;;;18.13;55.21;99308.72;5047911;28;20038;-95
2023/03/30 13:37:26;;;;;;;8.75;4.18;;;;;;;17.83;56.11;99303.03;5047852;28;20053;-95
2023/03/30 13:40:00;;;;;;;7.05;3.45;;;;;;;17.62;55.91;99289.59;5007383;28;20093;-93
2023/03/30 13:42:51;;;;;;;6.38;3.40;;;;;;;18.01;56.31;99293.16;5006792;28;20054;-95
2023/03/30 13:45:29;;;;;;;8.70;3.63;;;;;;;18.17;54.94;99282.50;5007064;28;20050;-95
2023/03/30 13:48:06;;;;;;;6.22;3.75;;;;;;;18.20;55.24;99277.00;5007854;28;20046;-95
2023/03/30 13:50:33;;;;;;;8.85;4.10;;;;;;;18.10;55.49;99276.56;5002890;28;20435;-94
2023/03/30 13:53:02;;;;;;;6.15;3.58;;;;;;;18.03;55.83;99265.22;5001888;28;20058;-94
2023/03/30 13:55:30;;;;;;;8.70;3.53;;;;;;;17.93;56.03;99265.75;5003246;28;20050;-94
2023/03/30 13:58:01;;;;;;;7.55;4.03;;;;;;;17.72;56.79;99283.78;5000972;28;20050;-93
2023/03/30 14:00:42;;;;;;;12.90;3.78;;;;;;;17.68;56.67;99272.31;4982589;28;20051;-95
2023/03/30 14:03:26;;;;;;;9.15;3.65;;;;;;;17.50;57.79;99254.34;4982832;28;20080;-94
2023/03/30 14:05:53;;;;;;;7.13;3.85;;;;;;;17.43;57.80;99249.25;4981152;28;20507;-94
2023/03/30 14:08:19;;;;;;;6.72;3.80;;;;;;;17.21;57.85;99251.22;4982859;28;20070;-93
2023/03/30 14:10:46;;;;;;;8.85;4.03;;;;;;;17.06;58.72;99287.75;4982440;28;20042;-94
2023/03/30 14:13:18;;;;;;;9.23;4.13;;;;;;;17.32;58.38;99266.84;4998129;28;20574;-95
2023/03/30 14:15:44;;;;;;;7.40;3.80;;;;;;;17.59;58.21;99244.03;5001892;28;20439;-94
2023/03/30 14:18:19;;;;;;;9.32;4.15;;;;;;;17.97;56.94;99229.69;5002602;28;20061;-96
2023/03/30 14:20:48;;;;;;;8.20;3.80;;;;;;;18.07;55.82;99217.53;4995814;28;20496;-94
2023/03/30 14:23:18;;;;;;;7.82;3.53;;;;;;;18.44;54.97;99243.41;4982361;28;20046;-94
2023/03/30 14:25:44;;;;;;;8.50;3.40;;;;;;;18.30;55.69;99218.16;4994133;28;20042;-96
2023/03/30 14:28:13;;;;;;;7.45;3.60;;;;;;;18.15;56.75;99209.03;4984220;28;20068;-95
2023/03/30 14:30:50;;;;;;;5.90;2.92;;;;;;;18.50;55.07;99231.47;4997964;28;20061;-94
2023/03/30 14:33:16;;;;;;;5.95;2.90;;;;;;;18.44;54.95;99215.63;4999393;28;20039;-95
2023/03/30 14:35:45;;;;;;;6.07;3.58;;;;;;;18.06;54.61;99205.00;4985653;28;20114;-93
2023/03/30 14:38:20;;;;;;;;;;;;;;;18.22;55.35;99230.19;5011799;28;20058;-95
2023/03/30 14:40:47;;;;;;;5.13;2.90;;;;;;;18.40;55.41;99206.81;5019762;28;20020;-96
2023/03/30 14:43:17;;;;;;;6.38;3.17;;;;;;;18.26;55.12;99199.47;5034497;28;20586;-95
2023/03/30 14:45:43;;;;;;;6.22;2.90;;;;;;;18.46;54.02;99225.38;5026931;28;20398;-93
2023/03/30 14:48:20;;;;;;;5.53;2.88;;;;;;;18.03;54.25;99197.09;5021722;28;20050;-94
2023/03/30 14:50:47;;;;;;;6.10;3.35;;;;;;;17.90;55.86;99201.34;5025785;28;20045;-96
2023/03/30 14:53:13;;;;;;;10.48;3.80;;;;;;;17.75;56.92;99211.03;5033555;28;20030;-94
2023/03/30 14:55:40;;;;;;;7.43;3.22;;;;;;;17.70;57.63;99218.47;5022776;28;20049;-94
2023/03/30 14:58:09;;;;;;;7.13;3.30;;;;;;;17.88;57.28;99220.25;5034995;28;20049;-95
2023/03/30 15:00:35;;;;;;;7.93;3.53;;;;;;;17.91;56.74;99205.78;5039430;28;20090;-95
2023/03/30 15:03:03;;;;;;;6.95;3.28;;;;;;;17.88;56.84;99203.25;5043487;28;20042;-95
2023/03/30 15:05:35;;;;;;;5.32;3.20;;;;;;;17.81;57.56;99199.97;5042464;28;20045;-96
2023/03/30 15:08:02;;;;;;;8.68;3.33;;;;;;;17.89;57.03;99213.06;5042248;28;20112;-95
2023/03/30 15:10:35;;;;;;;6.78;3.90;;;;;;;17.85;57.01;99191.69;5031513;28;20072;-96
2023/03/30 15:13:03;;;;;;;5.60;3.42;;;;;;;17.98;56.33;99186.56;5037164;28;20061;-95
2023/03/30 15:15:31;;;;;;;8.57;3.72;;;;;;;18.11;55.33;99184.13;5038628;28;20068;-93
2023/03/30 15:17:58;;;;;;;9.70;3.50;;;;;;;18.06;55.94;99178.09;5024677;28;20046;-95
2023/03/30 15:20:27;;;;;;;7.13;3.25;;;;;;;17.68;56.74;99178.19;5030634;28;20113;-94
2023/03/30 15:22:58;;;;;;;6.50;3.30;;;;;;;17.45;56.62;99188.22;5044743;28;20042;-94
2023/03/30 15:25:30;;;;;;;6.50;3.10;;;;;;;17.27;56.65;99177.50;5033936;28;20124;-94
2023/03/30 15:28:00;;;;;;;7.10;3.45;;;;;;;17.48;55.58;99202.47;5041334;28;20049;-95
2023/03/30 15:30:33;;;;;;;7.55;3.33;;;;;;;17.60;54.19;99170.47;5026923;28;20046;-95
2023/03/30 15:33:00;;;;;;;6.78;3.00;;;;;;;17.78;53.44;99187.53;5022820;28;20042;-94
2023/03/30 15:35:28;;;;;;;5.78;2.70;;;;;;;17.90;53.75;99174.44;5038678;28;20737;-94
2023/03/30 15:37:57;;;;;;;6.25;2.60;;;;;;;17.82;53.12;99175.69;5023019;28;20058;-95
2023/03/30 15:40:32;;;;;;;7.15;2.80;;;;;;;17.82;53.47;99197.22;5032762;28;20068;-94
2023/03/30 15:43:15;;;;;;;7.78;2.78;;;;;;;17.61;54.44;99187.50;5040645;28;20586;-94
2023/03/30 15:45:47;;;;;;;6.78;3.00;;;;;;;17.49;53.78;99166.59;5038015;28;20088;-95
2023/03/30 15:48:17;;;;;;;6.90;3.47;;;;;;;17.37;54.70;99158.19;5043801;28;20041;-94
2023/03/30 15:50:45;;;;;;;7.43;2.70;;;;;;;17.30;53.85;99155.84;5030104;28;20053;-95
2023/03/30 15:53:19;;;;;;;5.25;2.75;;;;;;;17.12;54.11;99158.47;5034653;28;20064;-95
2023/03/30 15:55:50;;;;;;;7.65;2.70;;;;;;;17.17;55.10;99171.69;5040660;28;20045;-94
2023/03/30 15:58:20;;;;;;;5.68;2.50;;;;;;;17.22;54.15;99175.91;5033413;28;20046;-93
2023/03/30 16:00:47;;;;;;;5.72;2.53;;;;;;;17.14;53.54;99153.91;5023133;28;20046;-94
2023/03/30 16:03:13;;;;;;;8.07;2.88;;;;;;;17.09;54.43;99138.94;5039973;28;20061;-94
2023/03/30 16:05:40;;;;;;;5.85;2.90;;;;;;;17.19;54.38;99159.06;5046007;28;20049;-94
2023/03/30 16:08:06;;;;;;;5.38;2.70;;;;;;;17.16;54.03;99157.38;5044767;28;20046;-95
2023/03/30 16:10:36;;;;;;;7.60;3.60;;;;;;;17.10;54.82;99133.50;5026154;28;20053;-94
2023/03/30 16:13:05;;;;;;;5.53;3.10;;;;;;;17.06;53.87;99136.41;5027880;28;20042;-94
2023/03/30 16:15:33;;;;;;;5.32;2.50;;;;;;;16.91;53.38;99162.19;5023972;28;20049;-90
2023/03/30 16:17:59;;;;;;;5.97;3.00;;;;;;;16.99;53.24;99149.25;5042519;28;20079;-95
2023/03/30 16:20:27;;;;;;;7.70;3.13;;;;;;;16.89;52.73;99159.56;5025616;28;20101;-94
2023/03/30 16:22:53;;;;;;;13.27;5.80;;;;;;;16.54;53.05;99140.53;5020314;28;20042;-93
2023/03/30 16:25:23;;;;;;;10.95;4.55;;;;;;;16.84;52.58;99164.28;5022656;28;20148;-94
2023/03/30 16:27:57;;;;;;;12.13;3.97;;;;;;;16.76;51.13;99174.47;5043813;28;20045;-94
2023/03/30 16:30:27;;;;;;;9.07;4.80;;;;;;;16.56;51.80;99152.06;5039217;28;20503;-93
2023/03/30 16:32:53;;;;;;;8.90;4.40;;;;;;;16.62;52.53;99159.84;5022888;28;20448;-95
2023/03/30 16:35:19;;;;;;;6.80;3.50;;;;;;;16.61;50.77;99174.25;5022563;28;20050;-94
2023/03/30 16:37:45;;;;;;;8.00;3.95;;;;;;;16.64;50.82;99163.34;5035733;28;20053;-93
2023/03/30 16:40:20;;;;;;;7.55;2.70;;;;;;;16.46;51.18;99147.19;5023422;28;20046;-94
2023/03/30 16:42:46;;;;;;;5.38;2.38;;;;;;;16.31;50.51;99132.63;5021094;28;20053;-93
2023/03/30 16:45:13;;;;;;;5.07;2.55;;;;;;;16.23;49.97;99115.09;5020961;28;20050;-94
2023/03/30 16:47:39;;;;;;;5.22;3.08;;;;;;;16.11;49.66;99115.66;5023703;28;20046;-94
2023/03/30 16:50:17;;;;;;;6.53;3.05;;;;;;;16.20;49.54;99146.56;5033321;28;20053;-93
2023/03/30 16:52:42;;;;;;;7.15;3.15;;;;;;;16.42;48.56;99141.09;5039104;28;20072;-93
2023/03/30 16:55:09;;;;;;;7.47;3.70;;;;;;;16.29;48.21;99116.63;5035778;28;20045;-94
2023/03/30 16:57:35;;;;;;;9.00;5.03;;;;;;;16.31;48.42;99138.00;5033736;28;20136;-93
2023/03/30 17:00:00;;;;;;;14.25;7.80;;;;;;;15.79;49.71;99123.28;5028841;28;20092;-89
2023/03/30 17:02:28;;;;;;;28.77;15.80;;;;;;;15.57;50.23;99130.41;5033917;28;20106;-92
2023/03/30 17:04:54;;;;;;;17.30;10.98;;;;;;;15.29;51.62;99144.97;5029374;28;20064;-94
2023/03/30 17:07:20;;;;;;;31.75;20.83;;;;;;;15.29;51.30;99153.00;5026510;28;20401;-93
2023/03/30 17:09:46;;;;;;;26.02;16.75;;;;;;;15.10;52.58;99157.34;5026960;28;20128;-93
2023/03/30 17:12:11;;;;;;;27.15;17.45;;;;;;;14.79;53.87;99140.69;5037204;28;20060;-91
2023/03/30 17:14:39;;;;;;;19.33;10.15;;;;;;;14.69;54.68;99144.63;5027708;28;20521;-93
2023/03/30 17:17:06;;;;;;;20.75;13.05;;;;;;;14.46;55.81;99124.03;5031946;28;20049;-93
2023/03/30 17:19:33;;;;;;;15.50;7.28;;;;;;;14.42;56.72;99140.25;5026646;28;20105;-92
2023/03/30 17:21:59;;;;;;;8.93;5.05;;;;;;;14.24;57.67;99123.09;5024276;28;20133;-93
2023/03/30 17:24:29;;;;;;;12.85;5.03;;;;;;;14.21;58.23;99117.88;5029572;28;20068;-93
2023/03/30 17:26:56;;;;;;;6.90;4.00;;;;;;;14.04;59.02;99119.31;5028768;28;20088;-94
2023/03/30 17:29:24;;;;;;;10.20;4.55;;;;;;;13.88;59.70;99119.00;5037660;28;20532;-94
2023/03/30 17:31:49;;;;;;;9.32;3.95;;;;;;;13.82;60.94;99121.03;5036023;28;20122;-93